createdAt,value
2017-07-21T00:00:12.555Z,20.73
2017-07-21T00:01:12.265Z,20.7
2017-07-21T00:02:12.505Z,20.72
2017-07-21T00:03:12.196Z,20.7
2017-07-21T00:04:12.207Z,20.7
2017-07-21T00:05:12.171Z,20.76
2017-07-21T00:06:12.154Z,20.73
2017-07-21T00:07:12.444Z,20.78
2017-07-21T00:08:12.134Z,20.73
2017-07-21T00:09:12.158Z,20.66
2017-07-21T00:10:12.117Z,20.72
2017-07-21T00:11:12.153Z,20.73
2017-07-21T00:12:12.376Z,20.64
2017-07-21T00:13:12.356Z,20.63
2017-07-21T00:14:12.345Z,20.64
2017-07-21T00:15:12.089Z,20.48
2017-07-21T00:16:12.017Z,20.6
2017-07-21T00:17:12.011Z,20.72
2017-07-21T00:18:12.290Z,20.66
2017-07-21T00:19:12.384Z,20.62
2017-07-21T00:20:12.265Z,20.7
2017-07-21T00:21:11.950Z,20.6
2017-07-21T00:22:12.237Z,20.49
2017-07-21T00:23:12.226Z,20.55
2017-07-21T00:24:12.207Z,20.57
2017-07-21T00:25:12.206Z,20.58
2017-07-21T00:26:12.285Z,20.47
2017-07-21T00:27:11.855Z,20.63
2017-07-21T00:28:12.275Z,20.48
2017-07-21T00:29:12.164Z,20.47
2017-07-21T00:30:11.831Z,20.51
2017-07-21T00:31:12.117Z,20.48
2017-07-21T00:32:12.097Z,20.43
2017-07-21T00:33:12.087Z,20.44
2017-07-21T00:34:12.145Z,20.44
2017-07-21T00:35:12.106Z,20.49
2017-07-21T00:36:12.097Z,20.44
2017-07-21T00:37:12.036Z,20.44
2017-07-21T00:38:11.812Z,20.35
2017-07-21T00:39:12.007Z,20.31
2017-07-21T00:40:11.787Z,20.22
2017-07-21T00:41:11.975Z,20.17
2017-07-21T00:42:11.658Z,20.22
2017-07-21T00:43:11.957Z,20.18
2017-07-21T00:44:11.927Z,20.17
2017-07-21T00:45:12.030Z,20.23
2017-07-21T00:46:11.602Z,20.22
2017-07-21T00:47:11.885Z,20.25
2017-07-21T00:48:11.942Z,20.25
2017-07-21T00:49:11.857Z,20.16
2017-07-21T00:50:11.555Z,20.08
2017-07-21T00:51:11.826Z,20.14
2017-07-21T00:52:11.508Z,20.14
2017-07-21T00:53:11.814Z,19.99
2017-07-21T00:54:15.893Z,19.92
2017-07-21T00:57:11.421Z,19.95
2017-07-21T00:58:11.730Z,19.93
2017-07-21T00:59:11.414Z,19.93
2017-07-21T01:00:11.436Z,19.99
2017-07-21T01:01:11.696Z,20.01
2017-07-21T01:02:11.689Z,19.96
2017-07-21T01:03:11.654Z,19.96
2017-07-21T01:04:11.642Z,19.85
2017-07-21T01:05:11.654Z,19.81
2017-07-21T01:06:11.310Z,19.74
2017-07-21T01:07:11.616Z,19.86
2017-07-21T01:08:11.602Z,19.86
2017-07-21T01:09:11.581Z,19.91
2017-07-21T01:10:11.570Z,19.92
2017-07-21T01:11:11.541Z,19.93
2017-07-21T01:12:11.529Z,19.96
2017-07-21T01:13:10.908Z,20.01
2017-07-21T01:14:11.497Z,19.95
2017-07-21T01:15:11.490Z,20.01
2017-07-21T01:16:11.159Z,19.98
2017-07-21T01:17:11.150Z,19.91
2017-07-21T01:18:11.130Z,19.81
2017-07-21T01:19:11.440Z,19.86
2017-07-21T01:20:11.111Z,19.86
2017-07-21T01:21:11.243Z,19.83
2017-07-21T01:22:11.380Z,19.66
2017-07-21T01:23:11.065Z,19.74
2017-07-21T01:24:11.051Z,19.76
2017-07-21T01:25:11.067Z,19.83
2017-07-21T01:26:10.710Z,19.86
2017-07-21T01:27:11.011Z,19.78
2017-07-21T01:28:11.299Z,19.83
2017-07-21T01:29:11.279Z,19.81
2017-07-21T01:30:10.961Z,19.76
2017-07-21T01:31:10.639Z,19.76
2017-07-21T01:32:11.240Z,19.77
2017-07-21T01:33:11.230Z,19.76
2017-07-21T01:34:10.908Z,19.71
2017-07-21T01:35:11.210Z,19.83
2017-07-21T01:36:11.191Z,19.81
2017-07-21T01:37:11.180Z,19.62
2017-07-21T01:38:11.150Z,19.52
2017-07-21T01:39:10.821Z,19.61
2017-07-21T01:40:10.811Z,19.62
2017-07-21T01:41:11.102Z,19.61
2017-07-21T01:42:11.110Z,19.69
2017-07-21T01:43:11.070Z,19.73
2017-07-21T01:44:10.751Z,19.67
2017-07-21T01:45:10.740Z,19.71
2017-07-21T01:46:11.030Z,19.74
2017-07-21T01:47:11.011Z,19.63
2017-07-21T01:48:11.009Z,19.4
2017-07-21T01:49:10.990Z,19.49
2017-07-21T01:50:10.665Z,19.46
2017-07-21T01:51:10.960Z,19.61
2017-07-21T01:52:10.943Z,19.55
2017-07-21T01:53:10.920Z,19.56
2017-07-21T01:54:10.931Z,19.55
2017-07-21T01:55:10.590Z,19.62
2017-07-21T01:56:10.917Z,19.61
2017-07-21T01:57:10.870Z,19.53
2017-07-21T01:58:10.854Z,19.55
2017-07-21T01:59:10.230Z,19.56
2017-07-21T02:00:10.820Z,19.52
2017-07-21T02:01:10.811Z,19.56
2017-07-21T02:02:10.842Z,19.51
2017-07-21T02:03:10.782Z,19.49
2017-07-21T02:04:10.862Z,19.4
2017-07-21T02:05:10.760Z,19.38
2017-07-21T02:06:10.800Z,19.26
2017-07-21T02:07:10.728Z,19.38
2017-07-21T02:08:10.808Z,19.31
2017-07-21T02:09:10.699Z,19.34
2017-07-21T02:10:10.750Z,19.25
2017-07-21T02:11:10.660Z,19.25
2017-07-21T02:12:10.041Z,19.22
2017-07-21T02:13:10.328Z,19.22
2017-07-21T02:14:10.353Z,19.15
2017-07-21T02:15:10.289Z,19.22
2017-07-21T02:16:10.693Z,18.95
2017-07-21T02:17:10.580Z,18.96
2017-07-21T02:18:10.349Z,19.08
2017-07-21T02:19:10.550Z,19.21
2017-07-21T02:20:10.570Z,19.07
2017-07-21T02:21:10.510Z,19.08
2017-07-21T02:22:10.603Z,19.06
2017-07-21T02:23:09.880Z,19.04
2017-07-21T02:24:10.176Z,18.84
2017-07-21T02:25:10.471Z,18.81
2017-07-21T02:26:10.179Z,18.93
2017-07-21T02:27:10.181Z,18.8
2017-07-21T02:28:09.831Z,18.97
2017-07-21T02:29:10.100Z,18.9
2017-07-21T02:30:10.069Z,18.92
2017-07-21T02:31:10.381Z,18.85
2017-07-21T02:32:10.039Z,18.81
2017-07-21T02:33:10.031Z,18.77
2017-07-21T02:34:10.021Z,18.81
2017-07-21T02:35:10.013Z,18.81
2017-07-21T02:36:09.980Z,18.85
2017-07-21T02:37:10.270Z,18.93
2017-07-21T02:38:10.300Z,18.95
2017-07-21T02:39:09.976Z,18.95
2017-07-21T02:40:09.950Z,18.92
2017-07-21T02:41:10.008Z,18.88
2017-07-21T02:42:09.589Z,18.84
2017-07-21T02:43:09.579Z,18.95
2017-07-21T02:44:09.860Z,18.95
2017-07-21T02:45:09.850Z,18.93
2017-07-21T02:46:10.129Z,18.9
2017-07-21T02:47:09.821Z,18.92
2017-07-21T02:48:10.099Z,18.92
2017-07-21T02:49:09.786Z,18.93
2017-07-21T02:50:09.773Z,18.96
2017-07-21T02:51:09.762Z,18.96
2017-07-21T02:52:10.077Z,18.99
2017-07-21T02:53:09.492Z,18.96
2017-07-21T02:54:09.710Z,18.87
2017-07-21T02:55:09.702Z,18.6
2017-07-21T02:56:09.680Z,18.56
2017-07-21T02:57:09.977Z,18.48
2017-07-21T02:58:09.650Z,18.52
2017-07-21T02:59:09.645Z,18.47
2017-07-21T03:00:09.311Z,18.6
2017-07-21T03:01:09.640Z,18.62
2017-07-21T03:02:09.590Z,18.63
2017-07-21T03:03:09.292Z,18.7
2017-07-21T03:04:09.875Z,18.66
2017-07-21T03:05:09.874Z,18.67
2017-07-21T03:06:09.851Z,18.65
2017-07-21T03:07:09.823Z,18.67
2017-07-21T03:08:09.801Z,18.75
2017-07-21T03:09:09.540Z,18.67
2017-07-21T03:10:09.789Z,18.69
2017-07-21T03:11:09.760Z,18.73
2017-07-21T03:12:09.748Z,18.67
2017-07-21T03:13:09.725Z,18.77
2017-07-21T03:14:09.727Z,18.78
2017-07-21T03:15:09.717Z,18.81
2017-07-21T03:16:09.689Z,18.7
2017-07-21T03:17:09.677Z,18.65
2017-07-21T03:18:09.671Z,18.73
2017-07-21T03:19:09.650Z,18.73
2017-07-21T03:20:09.630Z,18.75
2017-07-21T03:21:09.611Z,18.75
2017-07-21T03:22:09.591Z,18.78
2017-07-21T03:23:09.582Z,18.63
2017-07-21T03:24:09.570Z,18.69
2017-07-21T03:25:09.269Z,18.7
2017-07-21T03:26:09.380Z,18.45
2017-07-21T03:27:09.520Z,18.47
2017-07-21T03:28:09.498Z,18.44
2017-07-21T03:29:09.491Z,18.47
2017-07-21T03:30:08.871Z,18.5
2017-07-21T03:31:09.464Z,18.41
2017-07-21T03:32:09.441Z,18.44
2017-07-21T03:33:09.421Z,18.45
2017-07-21T03:34:09.160Z,18.41
2017-07-21T03:35:08.776Z,18.48
2017-07-21T03:36:09.069Z,18.47
2017-07-21T03:37:08.760Z,18.47
2017-07-21T03:38:09.050Z,18.55
2017-07-21T03:39:09.018Z,18.48
2017-07-21T03:40:09.309Z,18.48
2017-07-21T03:41:09.309Z,18.52
2017-07-21T03:42:08.989Z,18.65
2017-07-21T03:43:09.289Z,18.51
2017-07-21T03:44:09.260Z,18.41
2017-07-21T03:45:09.251Z,18.5
2017-07-21T03:46:09.220Z,18.56
2017-07-21T03:47:09.210Z,18.47
2017-07-21T03:48:09.198Z,18.52
2017-07-21T03:49:09.180Z,18.63
2017-07-21T03:50:09.160Z,18.63
2017-07-21T03:51:09.157Z,18.65
2017-07-21T03:52:09.130Z,18.63
2017-07-21T03:53:09.122Z,18.6
2017-07-21T03:54:09.109Z,18.65
2017-07-21T03:55:08.479Z,18.63
2017-07-21T03:56:08.760Z,18.6
2017-07-21T03:57:09.047Z,18.62
2017-07-21T03:58:09.029Z,18.5
2017-07-21T03:59:08.737Z,18.58
2017-07-21T04:00:09.008Z,18.5
2017-07-21T04:01:08.370Z,18.58
2017-07-21T04:02:08.969Z,18.63
2017-07-21T04:03:08.649Z,18.45
2017-07-21T04:04:08.649Z,18.44
2017-07-21T04:05:08.921Z,18.29
2017-07-21T04:06:08.921Z,18.4
2017-07-21T04:07:08.612Z,18.37
2017-07-21T04:08:08.270Z,18.4
2017-07-21T04:09:08.579Z,18.4
2017-07-21T04:10:08.849Z,18.47
2017-07-21T04:11:08.581Z,18.44
2017-07-21T04:12:08.819Z,18.45
2017-07-21T04:13:08.817Z,18.37
2017-07-21T04:14:08.800Z,18.3
2017-07-21T04:15:08.786Z,18.25
2017-07-21T04:16:08.759Z,18.25
2017-07-21T04:17:08.740Z,18.26
2017-07-21T04:18:08.739Z,18.15
2017-07-21T04:19:08.430Z,18.25
2017-07-21T04:20:08.393Z,18.2
2017-07-21T04:21:08.386Z,18.25
2017-07-21T04:22:08.356Z,18.12
2017-07-21T04:23:08.666Z,18.23
2017-07-21T04:24:08.638Z,18.29
2017-07-21T04:25:08.677Z,18.42
2017-07-21T04:26:08.609Z,18.23
2017-07-21T04:27:08.649Z,18.27
2017-07-21T04:28:08.569Z,18.25
2017-07-21T04:29:08.558Z,18.37
2017-07-21T04:30:08.548Z,18.32
2017-07-21T04:31:08.549Z,18.35
2017-07-21T04:32:08.508Z,18.25
2017-07-21T04:33:08.599Z,18.18
2017-07-21T04:34:08.218Z,18.3
2017-07-21T04:35:08.170Z,18.35
2017-07-21T04:36:08.189Z,18.32
2017-07-21T04:37:08.438Z,18.51
2017-07-21T04:38:08.249Z,18.51
2017-07-21T04:39:07.801Z,18.44
2017-07-21T04:40:08.079Z,18.38
2017-07-21T04:41:08.430Z,18.1
2017-07-21T04:42:08.049Z,18.08
2017-07-21T04:43:08.339Z,18.14
2017-07-21T04:44:08.329Z,18.15
2017-07-21T04:45:08.014Z,18.25
2017-07-21T04:46:08.299Z,18.37
2017-07-21T04:47:07.966Z,18.26
2017-07-21T04:48:07.961Z,18.25
2017-07-21T04:49:08.270Z,18.07
2017-07-21T04:50:08.243Z,18.08
2017-07-21T04:51:07.898Z,18.18
2017-07-21T04:52:08.227Z,18.14
2017-07-21T04:53:08.189Z,18.05
2017-07-21T04:54:08.182Z,18.01
2017-07-21T04:55:07.838Z,18.14
2017-07-21T04:56:07.829Z,17.95
2017-07-21T04:57:08.117Z,17.87
2017-07-21T04:58:07.490Z,17.83
2017-07-21T04:59:08.109Z,17.93
2017-07-21T05:00:08.081Z,18.08
2017-07-21T05:01:08.088Z,18.02
2017-07-21T05:02:07.759Z,18.08
2017-07-21T05:03:08.041Z,18.15
2017-07-21T05:04:08.009Z,18.12
2017-07-21T05:05:07.699Z,18.23
2017-07-21T05:06:07.678Z,18.15
2017-07-21T05:07:08.001Z,18.02
2017-07-21T05:08:07.948Z,18.04
2017-07-21T05:09:07.948Z,18.12
2017-07-21T05:10:07.922Z,18.15
2017-07-21T05:11:07.909Z,18.12
2017-07-21T05:12:07.589Z,18.25
2017-07-21T05:13:07.564Z,18.35
2017-07-21T05:14:07.870Z,18.37
2017-07-21T05:15:07.239Z,18.35
2017-07-21T05:16:07.826Z,18.29
2017-07-21T05:17:07.202Z,18.27
2017-07-21T05:18:07.488Z,18.04
2017-07-21T05:19:07.778Z,18.18
2017-07-21T05:20:07.766Z,18.18
2017-07-21T05:21:07.449Z,18.25
2017-07-21T05:22:07.797Z,18.26
2017-07-21T05:23:07.452Z,18.32
2017-07-21T05:24:07.408Z,18.3
2017-07-21T05:25:07.697Z,18.44
2017-07-21T05:26:07.667Z,18.55
2017-07-21T05:27:07.354Z,18.48
2017-07-21T05:28:07.346Z,18.51
2017-07-21T05:29:07.320Z,18.48
2017-07-21T05:30:07.616Z,18.4
2017-07-21T05:31:07.290Z,18.38
2017-07-21T05:32:07.569Z,18.48
2017-07-21T05:33:07.335Z,18.35
2017-07-21T05:34:07.253Z,18.42
2017-07-21T05:35:07.548Z,18.37
2017-07-21T05:36:07.213Z,18.29
2017-07-21T05:37:07.207Z,18.29
2017-07-21T05:38:07.187Z,18.42
2017-07-21T05:39:07.462Z,18.3
2017-07-21T05:40:07.459Z,18.25
2017-07-21T05:41:07.437Z,18.4
2017-07-21T05:42:07.439Z,18.42
2017-07-21T05:43:07.419Z,18.47
2017-07-21T05:44:07.408Z,18.42
2017-07-21T05:45:07.382Z,18.63
2017-07-21T05:46:07.381Z,18.55
2017-07-21T05:47:07.361Z,18.66
2017-07-21T05:48:06.731Z,18.67
2017-07-21T05:49:07.339Z,18.66
2017-07-21T05:50:07.301Z,18.82
2017-07-21T05:51:06.969Z,18.84
2017-07-21T05:52:07.298Z,18.75
2017-07-21T05:53:07.261Z,18.7
2017-07-21T05:54:07.235Z,18.62
2017-07-21T05:55:07.242Z,18.8
2017-07-21T05:56:07.209Z,18.9
2017-07-21T05:57:07.202Z,18.84
2017-07-21T05:58:07.227Z,18.8
2017-07-21T05:59:07.190Z,18.59
2017-07-21T06:00:07.172Z,18.73
2017-07-21T06:01:07.140Z,18.75
2017-07-21T06:02:07.117Z,18.81
2017-07-21T06:03:06.492Z,18.95
2017-07-21T06:04:06.791Z,18.82
2017-07-21T06:05:06.770Z,18.74
2017-07-21T06:06:06.749Z,18.7
2017-07-21T06:07:07.060Z,18.8
2017-07-21T06:08:06.734Z,18.88
2017-07-21T06:09:07.020Z,18.62
2017-07-21T06:10:06.699Z,18.8
2017-07-21T06:11:06.999Z,18.92
2017-07-21T06:12:06.660Z,18.7
2017-07-21T06:13:06.669Z,18.81
2017-07-21T06:14:06.971Z,18.7
2017-07-21T06:15:06.929Z,18.8
2017-07-21T06:16:06.620Z,18.87
2017-07-21T06:17:06.600Z,18.92
2017-07-21T06:18:06.599Z,18.96
2017-07-21T06:19:06.865Z,19.07
2017-07-21T06:20:06.608Z,19
2017-07-21T06:21:06.866Z,19.14
2017-07-21T06:22:06.823Z,19.12
2017-07-21T06:23:06.198Z,18.97
2017-07-21T06:24:06.809Z,19
2017-07-21T06:25:06.780Z,19.16
2017-07-21T06:26:06.810Z,19.25
2017-07-21T06:27:06.753Z,19.19
2017-07-21T06:28:06.794Z,19.3
2017-07-21T06:29:06.719Z,19.46
2017-07-21T06:30:06.745Z,19.43
2017-07-21T06:31:06.684Z,19.31
2017-07-21T06:32:06.068Z,19.38
2017-07-21T06:33:06.721Z,19.38
2017-07-21T06:34:06.359Z,19.33
2017-07-21T06:35:06.330Z,19.37
2017-07-21T06:36:06.341Z,19.12
2017-07-21T06:37:06.619Z,19.14
2017-07-21T06:38:06.581Z,19.11
2017-07-21T06:39:06.279Z,19.21
2017-07-21T06:40:06.250Z,19.22
2017-07-21T06:41:06.281Z,19.19
2017-07-21T06:42:06.230Z,19.3
2017-07-21T06:43:06.211Z,19.38
2017-07-21T06:44:06.199Z,19.37
2017-07-21T06:45:06.221Z,19.3
2017-07-21T06:46:06.478Z,19.4
2017-07-21T06:47:05.839Z,19.52
2017-07-21T06:48:06.448Z,19.62
2017-07-21T06:49:06.427Z,19.76
2017-07-21T06:50:06.110Z,19.85
2017-07-21T06:51:06.398Z,19.73
2017-07-21T06:52:06.409Z,19.78
2017-07-21T06:53:06.058Z,19.89
2017-07-21T06:54:06.061Z,19.91
2017-07-21T06:55:05.779Z,19.92
2017-07-21T06:56:06.319Z,20.04
2017-07-21T06:57:06.359Z,20.1
2017-07-21T06:58:06.300Z,20.11
2017-07-21T06:59:06.310Z,19.93
2017-07-21T07:00:05.672Z,20.03
2017-07-21T07:01:06.261Z,20.06
2017-07-21T07:02:06.258Z,20.06
2017-07-21T07:03:06.032Z,20.11
2017-07-21T07:04:06.211Z,20.1
2017-07-21T07:05:05.899Z,20.18
2017-07-21T07:06:05.880Z,20.26
2017-07-21T07:07:05.868Z,20.33
2017-07-21T07:08:05.880Z,20.43
2017-07-21T07:09:05.932Z,20.29
2017-07-21T07:10:05.838Z,20.32
2017-07-21T07:11:05.574Z,20.26
2017-07-21T07:12:05.824Z,19.88
2017-07-21T07:13:05.849Z,19.83
2017-07-21T07:14:06.080Z,19.76
2017-07-21T07:15:06.090Z,19.86
2017-07-21T07:16:06.050Z,19.93
2017-07-21T07:17:05.788Z,19.95
2017-07-21T07:18:06.023Z,20.01
2017-07-21T07:19:06.008Z,20.06
2017-07-21T07:20:06.009Z,20.1
2017-07-21T07:21:05.985Z,19.96
2017-07-21T07:22:05.962Z,19.88
2017-07-21T07:23:05.958Z,19.88
2017-07-21T07:24:05.646Z,19.98
2017-07-21T07:25:05.610Z,19.98
2017-07-21T07:26:05.920Z,20.08
2017-07-21T07:27:05.900Z,20.11
2017-07-21T07:28:05.900Z,20.03
2017-07-21T07:29:05.561Z,20.08
2017-07-21T07:30:05.244Z,20.22
2017-07-21T07:31:05.849Z,19.98
2017-07-21T07:32:05.851Z,19.96
2017-07-21T07:33:05.829Z,20.1
2017-07-21T07:34:05.198Z,20.2
2017-07-21T07:35:05.504Z,20.23
2017-07-21T07:36:05.797Z,20.08
2017-07-21T07:37:05.770Z,20.2
2017-07-21T07:38:05.846Z,20.17
2017-07-21T07:39:05.426Z,20.31
2017-07-21T07:40:05.505Z,20.41
2017-07-21T07:41:05.402Z,20.52
2017-07-21T07:42:05.706Z,20.43
2017-07-21T07:43:05.362Z,20.54
2017-07-21T07:44:05.360Z,20.48
2017-07-21T07:45:05.667Z,20.55
2017-07-21T07:46:05.641Z,20.6
2017-07-21T07:47:05.630Z,20.67
2017-07-21T07:48:05.618Z,20.57
2017-07-21T07:49:05.295Z,20.7
2017-07-21T07:50:05.598Z,20.79
2017-07-21T07:51:05.281Z,20.91
2017-07-21T07:52:05.245Z,20.84
2017-07-21T07:53:05.606Z,20.94
2017-07-21T07:54:05.220Z,21.04
2017-07-21T07:55:05.208Z,21.28
2017-07-21T07:56:05.499Z,21.28
2017-07-21T07:57:05.489Z,21.41
2017-07-21T07:58:05.477Z,21.41
2017-07-21T07:59:05.510Z,21.34
2017-07-21T08:00:05.135Z,21.28
2017-07-21T08:01:05.448Z,20.99
2017-07-21T08:02:05.418Z,20.99
2017-07-21T08:03:05.110Z,21.06
2017-07-21T08:04:05.090Z,21.19
2017-07-21T08:05:05.079Z,21.24
2017-07-21T08:06:05.397Z,21.29
2017-07-21T08:07:05.073Z,21.26
2017-07-21T08:08:05.049Z,21.37
2017-07-21T08:09:05.329Z,21.47
2017-07-21T08:10:05.018Z,21.54
2017-07-21T08:11:05.319Z,21.44
2017-07-21T08:12:05.298Z,21.26
2017-07-21T08:13:05.279Z,21.41
2017-07-21T08:14:05.282Z,21.66
2017-07-21T08:15:04.961Z,21.79
2017-07-21T08:16:04.938Z,21.55
2017-07-21T08:17:04.939Z,21.44
2017-07-21T08:18:04.922Z,21.62
2017-07-21T08:19:04.904Z,21.84
2017-07-21T08:20:05.196Z,21.96
2017-07-21T08:21:05.189Z,22.33
2017-07-21T08:22:05.166Z,22.62
2017-07-21T08:23:04.855Z,22.62
2017-07-21T08:24:05.136Z,22.92
2017-07-21T08:25:05.130Z,22.51
2017-07-21T08:26:05.119Z,22.21
2017-07-21T08:27:04.804Z,22.33
2017-07-21T08:28:05.089Z,22.45
2017-07-21T08:29:05.082Z,22.45
2017-07-21T08:30:05.071Z,22.65
2017-07-21T08:31:05.069Z,22.94
2017-07-21T08:32:04.742Z,23.27
2017-07-21T08:33:05.030Z,23.57
2017-07-21T08:34:05.030Z,23.47
2017-07-21T08:35:05.022Z,23.51
2017-07-21T08:36:04.991Z,23.82
2017-07-21T08:37:05.021Z,23.7
2017-07-21T08:38:04.980Z,23.35
2017-07-21T08:39:04.674Z,23.14
2017-07-21T08:40:04.972Z,23.35
2017-07-21T08:41:04.960Z,23.35
2017-07-21T08:42:04.949Z,23.27
2017-07-21T08:43:04.923Z,23.42
2017-07-21T08:44:04.598Z,23.55
2017-07-21T08:45:04.924Z,23.72
2017-07-21T08:46:04.941Z,23.78
2017-07-21T08:47:04.586Z,24.21
2017-07-21T08:48:04.886Z,24.58
2017-07-21T08:49:04.560Z,24.36
2017-07-21T08:50:04.861Z,23.97
2017-07-21T08:51:04.850Z,24.46
2017-07-21T08:52:04.840Z,24.65
2017-07-21T08:53:04.837Z,24.46
2017-07-21T08:54:04.920Z,23.89
2017-07-21T08:55:04.499Z,23.87
2017-07-21T08:56:04.837Z,23.82
2017-07-21T08:57:04.789Z,24
2017-07-21T08:58:04.811Z,23.99
2017-07-21T08:59:04.779Z,23.97
2017-07-21T09:00:04.879Z,24.09
2017-07-21T09:01:04.758Z,24.55
2017-07-21T09:02:04.759Z,24.52
2017-07-21T09:03:04.764Z,24.62
2017-07-21T09:04:04.485Z,25.03
2017-07-21T09:05:04.734Z,25.52
2017-07-21T09:06:04.737Z,25.77
2017-07-21T09:07:04.732Z,26.03
2017-07-21T09:08:04.729Z,26.47
2017-07-21T09:09:04.753Z,26.82
2017-07-21T09:10:04.695Z,26.81
2017-07-21T09:11:04.391Z,27.01
2017-07-21T09:12:04.702Z,26.47
2017-07-21T09:13:04.718Z,26.11
2017-07-21T09:14:04.708Z,26.2
2017-07-21T09:15:04.718Z,25.54
2017-07-21T09:16:04.380Z,25.86
2017-07-21T09:17:04.682Z,25.99
2017-07-21T09:18:04.359Z,26.42
2017-07-21T09:19:04.372Z,26.82
2017-07-21T09:20:04.661Z,26.85
2017-07-21T09:21:04.650Z,26.82
2017-07-21T09:22:04.645Z,27.07
2017-07-21T09:23:04.821Z,26.47
2017-07-21T09:24:04.650Z,26.56
2017-07-21T09:25:04.662Z,26.84
2017-07-21T09:26:04.673Z,26.98
2017-07-21T09:27:04.398Z,26.22
2017-07-21T09:28:04.660Z,26
2017-07-21T09:29:04.639Z,26.3
2017-07-21T09:30:04.357Z,26.59
2017-07-21T09:31:04.673Z,26.42
2017-07-21T09:32:04.733Z,26.69
2017-07-21T09:33:04.353Z,27.09
2017-07-21T09:34:04.357Z,27.07
2017-07-21T09:35:04.660Z,27.12
2017-07-21T09:36:04.635Z,27.41
2017-07-21T09:37:04.301Z,27.66
2017-07-21T09:38:04.621Z,27.78
2017-07-21T09:39:04.629Z,26.81
2017-07-21T09:40:04.615Z,26.69
2017-07-21T09:41:04.609Z,25.94
2017-07-21T09:42:04.600Z,26
2017-07-21T09:43:04.289Z,26.44
2017-07-21T09:44:04.600Z,26.79
2017-07-21T09:45:04.600Z,26.91
2017-07-21T09:46:04.598Z,27.18
2017-07-21T09:47:04.298Z,27.43
2017-07-21T09:48:04.578Z,27.79
2017-07-21T09:49:04.583Z,28.21
2017-07-21T09:50:04.302Z,28.25
2017-07-21T09:51:04.298Z,27.84
2017-07-21T09:52:04.589Z,27.37
2017-07-21T09:53:04.568Z,27.3
2017-07-21T09:54:04.358Z,27.36
2017-07-21T09:55:04.644Z,27.15
2017-07-21T09:56:04.374Z,27.36
2017-07-21T09:57:03.945Z,27.84
2017-07-21T09:58:04.263Z,28.19
2017-07-21T09:59:04.566Z,28.42
2017-07-21T10:00:04.268Z,28.62
2017-07-21T10:01:04.608Z,29
2017-07-21T10:02:04.568Z,29.07
2017-07-21T10:03:04.569Z,28.12
2017-07-21T10:04:04.318Z,28
2017-07-21T10:05:04.568Z,27.63
2017-07-21T10:06:04.540Z,27.38
2017-07-21T10:07:04.561Z,27.88
2017-07-21T10:08:04.229Z,28.21
2017-07-21T10:09:04.531Z,27.97
2017-07-21T10:10:04.539Z,28.16
2017-07-21T10:11:04.541Z,28.34
2017-07-21T10:12:04.529Z,28.37
2017-07-21T10:13:04.548Z,28.16
2017-07-21T10:14:03.918Z,27.93
2017-07-21T10:15:04.520Z,27.91
2017-07-21T10:16:04.517Z,27.91
2017-07-21T10:17:04.211Z,28.34
2017-07-21T10:18:04.214Z,28.53
2017-07-21T10:19:04.508Z,28.71
2017-07-21T10:20:04.523Z,29.09
2017-07-21T10:21:04.499Z,29.49
2017-07-21T10:22:04.498Z,29.39
2017-07-21T10:23:04.488Z,28.56
2017-07-21T10:24:04.501Z,26.51
2017-07-21T10:25:04.478Z,25.45
2017-07-21T10:26:04.534Z,25.71
2017-07-21T10:27:04.468Z,26.27
2017-07-21T10:28:04.509Z,26.23
2017-07-21T10:29:04.174Z,26.38
2017-07-21T10:30:04.572Z,26.29
2017-07-21T10:31:04.152Z,26.57
2017-07-21T10:32:04.558Z,26.94
2017-07-21T10:33:04.478Z,27.5
2017-07-21T10:34:04.484Z,27.98
2017-07-21T10:35:04.440Z,28.27
2017-07-21T10:36:04.539Z,28.45
2017-07-21T10:37:04.421Z,28.09
2017-07-21T10:38:04.411Z,27.41
2017-07-21T10:39:04.439Z,26.34
2017-07-21T10:40:04.428Z,26.49
2017-07-21T10:41:04.390Z,26.94
2017-07-21T10:42:04.389Z,27.04
2017-07-21T10:43:04.381Z,26.67
2017-07-21T10:44:04.370Z,26.86
2017-07-21T10:45:03.751Z,27.01
2017-07-21T10:46:04.362Z,27.52
2017-07-21T10:47:04.365Z,27.93
2017-07-21T10:48:04.340Z,28.3
2017-07-21T10:49:04.338Z,28.61
2017-07-21T10:50:04.329Z,28.9
2017-07-21T10:51:04.328Z,29.3
2017-07-21T10:52:04.320Z,29.22
2017-07-21T10:53:04.009Z,28.67
2017-07-21T10:54:04.299Z,28.56
2017-07-21T10:55:03.989Z,28.84
2017-07-21T10:56:03.979Z,29.07
2017-07-21T10:57:04.270Z,28.92
2017-07-21T10:58:03.967Z,29.25
2017-07-21T10:59:04.264Z,29.21
2017-07-21T11:00:03.965Z,29.15
2017-07-21T11:01:03.937Z,29.09
2017-07-21T11:02:03.996Z,29.1
2017-07-21T11:03:04.315Z,29.15
2017-07-21T11:04:04.328Z,28.97
2017-07-21T11:05:04.248Z,28.8
2017-07-21T11:06:03.912Z,28.58
2017-07-21T11:07:04.208Z,28.18
2017-07-21T11:08:03.889Z,28.08
2017-07-21T11:09:04.197Z,28.16
2017-07-21T11:10:04.227Z,28.45
2017-07-21T11:11:03.908Z,28.74
2017-07-21T11:12:03.864Z,28.87
2017-07-21T11:13:04.208Z,29.12
2017-07-21T11:14:04.156Z,28.9
2017-07-21T11:15:04.196Z,28.05
2017-07-21T11:16:03.839Z,27.79
2017-07-21T11:17:03.521Z,27.68
2017-07-21T11:18:03.518Z,27.43
2017-07-21T11:19:04.118Z,27.18
2017-07-21T11:20:03.796Z,27.28
2017-07-21T11:21:04.098Z,27.6
2017-07-21T11:22:04.134Z,27.75
2017-07-21T11:23:04.090Z,28.16
2017-07-21T11:24:03.780Z,28.28
2017-07-21T11:25:04.088Z,28.13
2017-07-21T11:26:03.748Z,27.71
2017-07-21T11:27:03.755Z,27.25
2017-07-21T11:28:03.747Z,27.55
2017-07-21T11:29:04.038Z,27.44
2017-07-21T11:30:03.721Z,27.55
2017-07-21T11:31:03.717Z,27.46
2017-07-21T11:32:04.018Z,27.12
2017-07-21T11:33:04.028Z,26.86
2017-07-21T11:34:03.765Z,26.59
2017-07-21T11:35:03.988Z,26.94
2017-07-21T11:36:03.996Z,27.36
2017-07-21T11:37:03.976Z,27.76
2017-07-21T11:38:03.670Z,27.96
2017-07-21T11:39:03.967Z,28.43
2017-07-21T11:40:03.707Z,28.72
2017-07-21T11:41:03.638Z,29
2017-07-21T11:42:03.640Z,29.18
2017-07-21T11:43:03.938Z,28.82
2017-07-21T11:44:03.620Z,28.95
2017-07-21T11:45:03.925Z,29.21
2017-07-21T11:46:03.917Z,29.57
2017-07-21T11:47:03.933Z,29.37
2017-07-21T11:48:03.596Z,29.36
2017-07-21T11:49:03.876Z,29.51
2017-07-21T11:50:03.907Z,28.83
2017-07-21T11:51:03.247Z,28.87
2017-07-21T11:52:03.864Z,28.93
2017-07-21T11:53:03.949Z,28.55
2017-07-21T11:54:03.847Z,28.62
2017-07-21T11:55:03.942Z,28.13
2017-07-21T11:56:03.831Z,27.97
2017-07-21T11:57:03.516Z,27.91
2017-07-21T11:58:03.807Z,27.98
2017-07-21T11:59:03.818Z,27.79
2017-07-21T12:00:03.499Z,27.21
2017-07-21T12:01:03.836Z,27.34
2017-07-21T12:02:03.802Z,27.53
2017-07-21T12:03:03.167Z,27.81
2017-07-21T12:04:03.460Z,28.25
2017-07-21T12:05:03.763Z,28.47
2017-07-21T12:06:03.136Z,28.79
2017-07-21T12:07:03.425Z,29.07
2017-07-21T12:08:03.415Z,29.2
2017-07-21T12:09:03.427Z,29.33
2017-07-21T12:10:03.739Z,28.83
2017-07-21T12:11:03.429Z,28.76
2017-07-21T12:12:03.697Z,28.86
2017-07-21T12:13:03.406Z,28.97
2017-07-21T12:14:03.686Z,29.1
2017-07-21T12:15:03.361Z,29.21
2017-07-21T12:16:03.377Z,29.46
2017-07-21T12:17:03.654Z,29.44
2017-07-21T12:18:03.662Z,29.35
2017-07-21T12:19:03.352Z,29.46
2017-07-21T12:20:03.034Z,29.37
2017-07-21T12:21:03.341Z,29.47
2017-07-21T12:22:03.617Z,29.61
2017-07-21T12:23:03.617Z,29.84
2017-07-21T12:24:03.291Z,29.77
2017-07-21T12:25:03.618Z,29.55
2017-07-21T12:26:03.584Z,29.46
2017-07-21T12:27:03.596Z,29.24
2017-07-21T12:28:03.576Z,29.28
2017-07-21T12:29:03.286Z,28.97
2017-07-21T12:30:03.571Z,28.98
2017-07-21T12:31:03.246Z,28.83
2017-07-21T12:32:03.242Z,28.6
2017-07-21T12:33:03.238Z,28.71
2017-07-21T12:34:03.644Z,28.5
2017-07-21T12:35:03.536Z,28.12
2017-07-21T12:36:03.527Z,28.33
2017-07-21T12:37:03.209Z,28.65
2017-07-21T12:38:03.551Z,28.79
2017-07-21T12:39:03.519Z,28.83
2017-07-21T12:40:03.491Z,28.9
2017-07-21T12:41:03.172Z,29
2017-07-21T12:42:03.171Z,29.1
2017-07-21T12:43:03.153Z,29.14
2017-07-21T12:44:03.146Z,29.24
2017-07-21T12:45:03.139Z,29.43
2017-07-21T12:46:03.437Z,29.52
2017-07-21T12:47:03.126Z,29.37
2017-07-21T12:48:03.439Z,29.43
2017-07-21T12:49:03.418Z,29.37
2017-07-21T12:50:03.107Z,29.24
2017-07-21T12:51:03.097Z,29.15
2017-07-21T12:52:03.090Z,28.97
2017-07-21T12:53:03.398Z,28.93
2017-07-21T12:54:03.078Z,29.06
2017-07-21T12:55:03.425Z,29.22
2017-07-21T12:56:03.066Z,28.72
2017-07-21T12:57:03.362Z,28.31